Time;durP1;ratioP1;P1;durP2;ratioP2;P2;SDS_P1;SDS_P2;PMS_P1;PMS_P2;Temp;Humidity;BMP_temperature;BMP_pressure;BME280_temperature;BME280_humidity;BME280_pressure;Samples;Min_cycle;Max_cycle;Signal;HPM_P1;HPM_P2
2022/05/22 00:01:14;;;;;;;9.23;3.50;;;;;;;13.47;68.40;100763.53;4994651;28;20036;-77
2022/05/22 00:03:40;;;;;;;8.18;3.38;;;;;;;13.43;68.39;100771.53;4994840;28;20043;-77
2022/05/22 00:06:05;;;;;;;10.15;3.80;;;;;;;13.40;68.84;100774.25;4994727;28;20034;-77
2022/05/22 00:08:30;;;;;;;7.57;3.42;;;;;;;13.36;69.08;100776.03;4977291;28;20072;-77
2022/05/22 00:10:56;;;;;;;10.02;3.90;;;;;;;13.27;69.20;100771.75;4976207;28;20420;-77
2022/05/22 00:13:24;;;;;;;9.13;3.75;;;;;;;13.24;69.37;100773.53;4994793;28;20562;-77
2022/05/22 00:18:33;;;;;;;9.45;3.85;;;;;;;13.18;69.92;100779.81;4989498;28;20037;-77
2022/05/22 00:20:59;;;;;;;9.43;4.30;;;;;;;13.15;69.68;100778.06;4985144;28;20404;-77
2022/05/22 00:23:24;;;;;;;9.75;3.75;;;;;;;13.16;69.79;100785.09;4977101;28;20405;-77
2022/05/22 00:25:50;;;;;;;8.65;4.25;;;;;;;13.13;69.87;100781.63;4958666;28;20625;-77
2022/05/22 00:28:15;;;;;;;9.35;4.05;;;;;;;13.08;70.35;100775.50;4994467;28;20039;-77
2022/05/22 00:30:40;;;;;;;8.13;4.05;;;;;;;13.07;70.38;100782.59;4976861;28;20038;-77
2022/05/22 00:33:06;;;;;;;5.93;3.50;;;;;;;13.10;70.00;100774.59;4976133;28;20081;-77
2022/05/22 00:35:32;;;;;;;9.13;3.72;;;;;;;13.12;69.92;100783.38;4973909;28;20034;-77
2022/05/22 00:37:57;;;;;;;11.40;4.07;;;;;;;13.14;70.08;100780.72;4994250;28;20030;-77
2022/05/22 00:40:22;;;;;;;11.20;4.18;;;;;;;13.15;70.26;100777.16;4994278;28;20062;-77
2022/05/22 00:42:50;;;;;;;7.75;3.95;;;;;;;13.20;70.14;100779.75;4974705;28;20042;-77
2022/05/22 00:45:16;;;;;;;9.63;4.00;;;;;;;13.25;70.10;100781.44;4976541;28;20036;-77
2022/05/22 00:47:42;;;;;;;7.53;3.83;;;;;;;13.26;69.93;100777.06;4994030;28;20034;-77
2022/05/22 00:50:09;;;;;;;10.60;4.75;;;;;;;13.22;70.12;100777.97;4990271;28;20064;-77
2022/05/22 00:52:43;;;;;;;10.32;4.65;;;;;;;13.22;70.07;100780.63;4993789;28;20078;-77
2022/05/22 00:55:14;;;;;;;9.60;4.43;;;;;;;13.18;70.19;100771.84;4993922;28;20101;-77
2022/05/22 00:57:52;;;;;;;7.82;4.75;;;;;;;13.17;70.46;100775.38;4976536;28;20030;-77
2022/05/22 01:00:21;;;;;;;7.57;3.95;;;;;;;13.16;70.41;100777.16;4991503;28;20104;-77
2022/05/22 01:05:40;;;;;;;8.38;4.30;;;;;;;13.06;70.74;100769.34;4992756;28;20485;-77
2022/05/22 01:08:06;;;;;;;10.63;4.35;;;;;;;13.04;70.53;100771.13;4976225;28;20049;-77
2022/05/22 01:10:42;;;;;;;8.70;4.15;;;;;;;13.05;70.54;100770.25;4960118;28;20030;-77
2022/05/22 01:13:08;;;;;;;7.72;3.90;;;;;;;13.03;71.07;100766.75;4973137;28;20118;-77
2022/05/22 01:15:34;;;;;;;12.68;4.57;;;;;;;13.02;70.89;100771.16;4975919;28;20034;-77
2022/05/22 01:18:00;;;;;;;7.80;4.30;;;;;;;13.00;71.42;100767.66;4976103;28;20037;-77
2022/05/22 01:20:25;;;;;;;10.38;4.70;;;;;;;12.99;70.95;100773.84;4976045;28;20456;-77
2022/05/22 01:22:51;;;;;;;8.82;4.57;;;;;;;12.96;71.45;100770.34;4993202;28;20558;-77
2022/05/22 01:25:16;;;;;;;8.18;4.10;;;;;;;12.91;71.75;100765.09;4975920;28;20038;-77
2022/05/22 01:27:42;;;;;;;8.00;4.35;;;;;;;12.90;71.72;100769.53;4975612;28;20026;-77
2022/05/22 01:30:19;;;;;;;12.27;4.45;;;;;;;12.92;71.84;100758.94;4993328;28;20053;-77
2022/05/22 01:32:49;;;;;;;8.60;4.40;;;;;;;12.92;71.18;100759.81;4974333;28;20501;-77
2022/05/22 01:35:19;;;;;;;7.28;4.30;;;;;;;12.95;71.49;100753.59;4975656;28;20494;-77
2022/05/22 01:37:46;;;;;;;7.50;4.07;;;;;;;12.93;71.23;100758.03;4993095;28;20026;-77
2022/05/22 01:40:14;;;;;;;8.77;3.88;;;;;;;12.89;71.38;100761.59;4984250;28;20030;-77
2022/05/22 01:42:40;;;;;;;9.10;4.32;;;;;;;12.80;72.15;100759.94;4990612;28;20097;-77
2022/05/22 01:45:09;;;;;;;10.90;4.40;;;;;;;12.74;72.85;100764.44;4975582;28;20034;-77
2022/05/22 01:47:37;;;;;;;10.18;4.68;;;;;;;12.69;73.10;100765.34;4975180;28;20057;-77
2022/05/22 01:50:04;;;;;;;10.38;5.20;;;;;;;12.70;73.43;100764.44;4970305;28;20121;-77
2022/05/22 01:52:30;;;;;;;9.70;5.25;;;;;;;12.76;73.25;100765.28;4992724;28;20165;-77
2022/05/22 01:54:55;;;;;;;9.13;3.97;;;;;;;12.79;73.47;100770.56;4973580;28;20050;-77
2022/05/22 01:57:21;;;;;;;8.43;4.25;;;;;;;12.81;73.66;100768.75;4992419;28;20142;-76
2022/05/22 01:59:47;;;;;;;8.88;4.72;;;;;;;12.75;73.27;100761.75;4975359;28;20054;-76
2022/05/22 02:02:20;;;;;;;7.00;4.25;;;;;;;12.57;74.34;100773.44;4975210;28;20041;-77
2022/05/22 02:04:46;;;;;;;11.45;4.85;;;;;;;12.39;75.26;100774.53;4974359;28;20031;-77
2022/05/22 02:09:58;;;;;;;10.20;4.65;;;;;;;12.40;74.23;100775.38;4972815;28;20037;-77
2022/05/22 02:12:25;;;;;;;9.15;4.63;;;;;;;12.37;75.03;100776.28;4974842;28;20121;-77
2022/05/22 02:14:51;;;;;;;7.65;3.70;;;;;;;12.36;74.69;100763.94;4992399;28;20042;-77
2022/05/22 02:17:17;;;;;;;8.57;4.95;;;;;;;12.40;74.93;100759.50;4975066;28;20066;-77
2022/05/22 02:19:50;;;;;;;9.95;4.43;;;;;;;12.41;75.09;100766.53;4974416;28;20035;-77
2022/05/22 02:22:30;;;;;;;7.18;3.95;;;;;;;12.37;74.99;100768.34;4971700;28;20030;-77
2022/05/22 02:24:55;;;;;;;7.43;4.53;;;;;;;12.37;74.78;100770.13;4973319;28;20092;-77
2022/05/22 02:27:21;;;;;;;10.32;4.10;;;;;;;12.22;74.86;100772.00;4967575;28;20022;-77
2022/05/22 02:29:47;;;;;;;10.93;5.15;;;;;;;12.14;75.32;100768.56;4974787;28;20049;-77
2022/05/22 02:32:13;;;;;;;9.57;4.85;;;;;;;12.06;75.16;100765.09;4974655;28;20034;-77
2022/05/22 02:34:38;;;;;;;9.55;4.40;;;;;;;12.00;75.94;100775.75;4992227;28;20050;-77
2022/05/22 02:37:04;;;;;;;8.38;4.53;;;;;;;11.92;76.03;100767.88;4972397;28;20122;-77
2022/05/22 02:39:30;;;;;;;9.95;4.65;;;;;;;11.87;76.23;100766.13;4974736;28;20046;-77
2022/05/22 02:42:04;;;;;;;8.88;4.72;;;;;;;11.79;76.29;100760.88;4958504;28;20026;-77
2022/05/22 02:44:30;;;;;;;11.45;5.85;;;;;;;11.65;77.21;100763.63;4957683;28;20030;-77
2022/05/22 02:46:56;;;;;;;8.45;5.03;;;;;;;11.54;77.95;100758.41;4974634;28;20026;-77
2022/05/22 02:49:21;;;;;;;6.43;4.03;;;;;;;11.55;78.15;100762.81;4972882;28;20038;-77
2022/05/22 02:51:46;;;;;;;8.63;4.30;;;;;;;11.58;77.72;100760.16;4991868;28;20042;-75
2022/05/22 02:54:12;;;;;;;10.45;4.95;;;;;;;11.47;78.34;100755.81;4971833;28;20106;-77
2022/05/22 02:56:54;;;;;;;9.52;5.50;;;;;;;11.44;78.71;100761.97;4970447;28;20062;-77
2022/05/22 02:59:19;;;;;;;11.25;5.07;;;;;;;11.50;78.66;100759.31;4991981;28;20073;-77
2022/05/22 03:02:17;;;;;;;11.75;5.45;;;;;;;11.53;79.44;100753.16;4977304;28;20059;-76
2022/05/22 03:04:44;;;;;;;9.40;5.20;;;;;;;11.56;79.34;100748.69;4974483;28;20097;-75
2022/05/22 03:07:15;;;;;;;10.23;4.70;;;;;;;11.59;80.00;100755.72;4974566;28;20405;-77
2022/05/22 03:09:45;;;;;;;11.18;5.25;;;;;;;11.61;79.40;100751.31;4973917;28;20035;-77
2022/05/22 03:12:17;;;;;;;9.90;5.25;;;;;;;11.68;79.54;100758.28;4974114;28;20413;-77
2022/05/22 03:14:54;;;;;;;8.07;5.00;;;;;;;11.65;79.37;100757.44;4971404;28;20056;-77
2022/05/22 03:17:20;;;;;;;10.20;5.68;;;;;;;11.58;80.53;100756.59;4974260;28;20417;-77
2022/05/22 03:19:57;;;;;;;8.95;4.57;;;;;;;11.54;80.17;100746.97;4971767;28;20037;-77
2022/05/22 03:22:23;;;;;;;8.80;5.78;;;;;;;11.54;80.39;100750.47;4991597;28;20042;-77
2022/05/22 03:24:49;;;;;;;10.25;5.97;;;;;;;11.41;80.44;100749.66;4974366;28;20034;-77
2022/05/22 03:27:17;;;;;;;10.55;5.32;;;;;;;11.29;80.12;100755.03;4968672;28;20023;-77
2022/05/22 03:29:44;;;;;;;8.93;5.05;;;;;;;11.25;80.23;100753.28;4971973;28;20468;-77
2022/05/22 03:32:11;;;;;;;8.10;4.85;;;;;;;11.24;80.06;100762.13;4971590;28;20026;-77
2022/05/22 03:34:39;;;;;;;8.13;4.85;;;;;;;11.24;80.41;100762.13;4956064;28;20061;-77
2022/05/22 03:37:05;;;;;;;10.48;5.70;;;;;;;11.29;80.15;100762.97;4973990;28;20505;-77
2022/05/22 03:39:31;;;;;;;9.10;5.43;;;;;;;11.36;81.15;100764.66;4991624;28;20109;-76
2022/05/22 03:41:58;;;;;;;10.75;6.13;;;;;;;11.48;80.99;100762.88;4973950;28;20123;-77
2022/05/22 03:44:24;;;;;;;10.50;6.20;;;;;;;11.61;80.68;100761.91;4972495;28;20027;-77
2022/05/22 03:46:50;;;;;;;9.75;6.03;;;;;;;11.81;80.31;100762.59;4974246;28;20117;-76
2022/05/22 03:49:20;;;;;;;8.52;5.68;;;;;;;11.96;79.68;100758.13;4974142;28;20034;-77
2022/05/22 03:51:48;;;;;;;9.40;5.07;;;;;;;12.09;78.46;100759.78;4970148;28;20026;-77
2022/05/22 03:54:17;;;;;;;9.95;4.50;;;;;;;12.16;78.00;100758.84;4974000;28;20053;-77
2022/05/22 03:56:45;;;;;;;7.28;5.10;;;;;;;12.17;77.94;100755.28;4976941;28;20037;-77
2022/05/22 03:59:27;;;;;;;8.52;4.70;;;;;;;12.22;78.36;100748.19;4973365;28;20043;-77
2022/05/22 04:01:53;;;;;;;11.32;5.57;;;;;;;12.30;77.58;100745.47;4968257;28;20038;-77
2022/05/22 04:04:19;;;;;;;11.02;5.82;;;;;;;12.26;77.44;100742.00;4977293;28;20030;-77
2022/05/22 04:06:45;;;;;;;11.30;5.43;;;;;;;12.22;77.26;100745.53;4977504;28;20388;-77
2022/05/22 04:09:15;;;;;;;11.07;5.47;;;;;;;12.16;77.59;100745.63;4974014;28;20034;-76
2022/05/22 04:12:06;;;;;;;8.80;5.07;;;;;;;12.18;77.42;100743.84;4962096;28;20045;-76
2022/05/22 04:14:31;;;;;;;12.45;5.70;;;;;;;12.16;77.19;100750.91;4977242;28;20046;-77
2022/05/22 04:17:04;;;;;;;10.57;5.20;;;;;;;12.14;77.75;100744.75;4961535;28;20117;-77
2022/05/22 04:19:31;;;;;;;8.02;5.07;;;;;;;12.12;77.33;100743.88;4993336;28;20133;-77
2022/05/22 04:21:57;;;;;;;8.80;5.72;;;;;;;12.11;77.50;100752.72;4974764;28;20042;-77
2022/05/22 04:27:10;;;;;;;11.77;5.75;;;;;;;12.11;78.41;100763.31;4974302;28;20030;-77
2022/05/22 04:29:38;;;;;;;10.57;5.90;;;;;;;12.17;78.31;100771.16;4994559;28;20066;-77
2022/05/22 04:32:04;;;;;;;8.43;5.43;;;;;;;12.22;78.52;100773.78;4976366;28;20062;-77
2022/05/22 04:34:37;;;;;;;8.65;6.25;;;;;;;12.23;77.91;100773.75;4982187;28;20041;-77
2022/05/22 04:37:09;;;;;;;11.90;6.38;;;;;;;12.26;78.19;100767.56;4975859;28;20563;-77
2022/05/22 04:39:40;;;;;;;10.02;5.65;;;;;;;12.30;78.14;100781.66;4976873;28;20412;-77
2022/05/22 04:42:06;;;;;;;12.73;6.50;;;;;;;12.32;77.35;100782.53;4976611;28;20033;-77
2022/05/22 04:44:32;;;;;;;10.05;6.07;;;;;;;12.35;77.59;100779.84;4976508;28;20042;-76
2022/05/22 04:47:18;;;;;;;10.88;6.30;;;;;;;12.40;76.63;100770.97;4994122;28;20152;-77
2022/05/22 04:49:55;;;;;;;11.93;5.25;;;;;;;12.46;76.74;100776.19;4960115;28;20502;-77
2022/05/22 04:52:20;;;;;;;8.93;5.50;;;;;;;12.50;76.51;100777.06;4993732;28;20038;-77
2022/05/22 04:54:47;;;;;;;13.73;5.38;;;;;;;12.70;75.94;100780.34;4976599;28;20034;-77
2022/05/22 04:57:12;;;;;;;11.07;5.68;;;;;;;12.92;75.33;100770.41;4974162;28;20394;-76
2022/05/22 04:59:38;;;;;;;8.98;4.85;;;;;;;13.14;74.81;100768.34;4976499;28;20034;-77
2022/05/22 05:02:04;;;;;;;9.13;5.07;;;;;;;13.23;74.09;100769.13;4976230;28;20065;-77
2022/05/22 05:04:39;;;;;;;8.43;4.13;;;;;;;13.24;73.39;100770.88;4976401;28;20129;-77
2022/05/22 05:07:09;;;;;;;10.13;5.47;;;;;;;13.24;73.60;100773.53;4975550;28;20041;-77
2022/05/22 05:09:55;;;;;;;9.77;4.57;;;;;;;13.22;72.49;100780.63;4970870;28;20444;-77
2022/05/22 05:12:36;;;;;;;9.18;4.15;;;;;;;13.27;71.90;100769.09;4976035;28;20493;-77
2022/05/22 05:15:06;;;;;;;8.32;3.63;;;;;;;13.31;70.59;100775.25;4976146;28;20038;-77
2022/05/22 05:17:32;;;;;;;7.22;3.05;;;;;;;13.38;69.50;100779.56;4976164;28;20077;-77
2022/05/22 05:19:59;;;;;;;8.13;2.90;;;;;;;13.38;67.81;100774.25;4975365;28;20480;-77
2022/05/22 05:22:30;;;;;;;9.80;2.83;;;;;;;13.50;68.19;100773.22;4975927;28;20030;-77
2022/05/22 05:25:05;;;;;;;7.43;2.80;;;;;;;13.56;66.84;100781.94;4973364;28;20034;-77
2022/05/22 05:27:32;;;;;;;7.32;2.45;;;;;;;13.63;65.41;100785.41;4974886;28;20039;-76
2022/05/22 05:30:08;;;;;;;6.25;2.05;;;;;;;13.69;65.67;100787.09;4972220;28;20440;-77
2022/05/22 05:32:40;;;;;;;;;;;;;;;13.61;64.71;100791.63;4975174;28;20035;-78
2022/05/22 05:35:11;;;;;;;8.30;2.10;;;;;;;13.68;65.25;100788.00;4975887;28;19914;-77
2022/05/22 05:37:38;;;;;;;5.20;2.30;;;;;;;13.77;66.16;100787.84;4983518;28;20038;-78
2022/05/22 05:40:12;;;;;;;5.72;2.28;;;;;;;13.81;63.61;100779.81;4975857;28;20033;-77
2022/05/22 05:42:41;;;;;;;7.85;2.10;;;;;;;13.86;64.26;100766.50;4975437;28;20034;-77
2022/05/22 05:45:10;;;;;;;6.97;1.92;;;;;;;14.01;63.74;100766.22;4993023;28;20040;-78
2022/05/22 05:47:47;;;;;;;5.88;1.98;;;;;;;14.11;63.23;100766.06;4974716;28;20043;-78
2022/05/22 05:50:22;;;;;;;5.13;1.70;;;;;;;14.15;62.06;100767.78;4975754;28;20062;-78
2022/05/22 05:53:00;;;;;;;7.28;1.80;;;;;;;14.16;61.61;100765.09;4974774;28;20528;-77
2022/05/22 05:55:44;;;;;;;6.53;1.40;;;;;;;14.20;60.79;100771.19;4988123;28;20038;-78
2022/05/22 05:58:28;;;;;;;4.65;1.40;;;;;;;14.21;59.79;100767.66;4990386;28;20084;-77
2022/05/22 06:00:59;;;;;;;6.88;1.52;;;;;;;14.23;59.42;100772.06;4974977;28;20037;-77
2022/05/22 06:03:28;;;;;;;6.97;1.48;;;;;;;14.31;59.17;100771.03;4975268;28;20046;-77
2022/05/22 06:05:55;;;;;;;6.25;1.52;;;;;;;14.39;59.26;100771.78;4972753;28;20029;-77
2022/05/22 06:08:27;;;;;;;12.00;2.58;;;;;;;14.56;58.51;100772.38;4975328;28;20405;-77
2022/05/22 06:11:00;;;;;;;8.82;1.75;;;;;;;14.62;58.54;100779.38;4992507;28;20092;-77
2022/05/22 06:13:35;;;;;;;4.53;1.08;;;;;;;14.58;57.74;100767.03;4975130;28;20041;-77
2022/05/22 06:16:04;;;;;;;5.72;1.40;;;;;;;14.62;58.28;100763.44;4974693;28;20576;-77
2022/05/22 06:18:29;;;;;;;5.50;1.38;;;;;;;14.65;57.09;100768.69;4974822;28;20030;-77
2022/05/22 06:21:10;;;;;;;8.40;1.23;;;;;;;14.70;56.94;100764.16;4973223;28;20031;-76
2022/05/22 06:23:36;;;;;;;5.05;1.40;;;;;;;14.77;56.95;100767.53;4991982;28;20030;-77
2022/05/22 06:26:12;;;;;;;6.82;1.17;;;;;;;14.77;56.14;100755.13;4989743;28;20038;-77
2022/05/22 06:28:38;;;;;;;5.60;1.35;;;;;;;14.77;56.64;100756.91;4992570;28;20046;-77
2022/05/22 06:31:11;;;;;;;4.70;1.00;;;;;;;14.87;56.70;100754.03;4974766;28;20030;-78
2022/05/22 06:34:06;;;;;;;4.75;1.20;;;;;;;14.89;56.51;100768.19;4971279;28;20038;-77
2022/05/22 06:37:10;;;;;;;9.95;1.77;;;;;;;14.96;56.42;100752.09;4951053;29;20044;-77
2022/05/22 06:39:55;;;;;;;5.82;1.20;;;;;;;14.95;56.90;100745.91;4988601;28;20122;-77
2022/05/22 06:42:44;;;;;;;6.10;1.33;;;;;;;15.02;55.95;100736.06;4988852;28;20059;-77
2022/05/22 06:45:28;;;;;;;5.05;1.30;;;;;;;15.03;56.74;100733.34;4989444;28;20052;-78
2022/05/22 06:48:10;;;;;;;5.20;0.93;;;;;;;15.05;56.27;100738.63;4974749;28;20037;-78
2022/05/22 06:50:55;;;;;;;6.80;1.65;;;;;;;15.24;56.69;100742.63;4992080;28;20061;-78
2022/05/22 06:53:26;;;;;;;5.85;1.52;;;;;;;15.37;55.93;100734.41;4989143;28;20070;-78
2022/05/22 06:56:00;;;;;;;5.53;1.50;;;;;;;15.34;56.47;100728.22;4974378;28;20030;-76
2022/05/22 06:58:36;;;;;;;5.28;1.23;;;;;;;15.50;57.02;100731.41;4988414;28;20042;-77
2022/05/22 07:01:20;;;;;;;8.30;2.42;;;;;;;15.61;56.27;100722.31;4991584;28;20172;-77
2022/05/22 07:04:04;;;;;;;6.57;1.55;;;;;;;15.69;56.77;100723.91;4991789;28;20080;-77
2022/05/22 07:06:35;;;;;;;6.72;1.98;;;;;;;15.67;56.12;100732.81;4988849;28;20501;-77
2022/05/22 07:09:29;;;;;;;9.23;1.80;;;;;;;15.81;56.23;100727.19;4980494;28;20034;-77
2022/05/22 07:12:14;;;;;;;7.40;1.70;;;;;;;15.98;56.49;100724.97;4970646;28;20472;-77
2022/05/22 07:15:03;;;;;;;5.82;1.60;;;;;;;16.26;56.01;100726.91;4970912;28;20556;-76
2022/05/22 07:17:54;;;;;;;7.68;2.22;;;;;;;16.16;55.18;100726.28;4988461;28;20046;-77
2022/05/22 07:20:28;;;;;;;7.97;1.95;;;;;;;16.06;56.13;100722.09;4991800;28;20041;-77
2022/05/22 07:23:14;;;;;;;6.82;1.92;;;;;;;16.13;55.08;100713.91;4972405;28;20038;-77
2022/05/22 07:25:55;;;;;;;6.85;1.70;;;;;;;16.29;55.66;100716.19;4969412;28;20041;-77
2022/05/22 07:28:38;;;;;;;6.88;1.77;;;;;;;16.52;54.95;100716.44;4988259;28;20049;-77
2022/05/22 07:31:21;;;;;;;5.85;1.83;;;;;;;16.68;54.06;100700.00;4959866;28;20465;-77
2022/05/22 07:34:05;;;;;;;8.63;2.08;;;;;;;16.77;53.55;100699.75;4993882;28;20053;-76
2022/05/22 07:36:53;;;;;;;7.55;1.75;;;;;;;16.99;52.20;100706.22;4978221;28;20172;-76
2022/05/22 07:39:42;;;;;;;9.52;2.15;;;;;;;17.17;52.45;100687.94;4976640;28;20057;-77
2022/05/22 07:42:26;;;;;;;6.32;1.60;;;;;;;17.35;52.35;100690.03;4992784;28;20096;-77
2022/05/22 07:45:14;;;;;;;6.03;1.73;;;;;;;17.50;51.86;100677.97;4972646;28;20046;-77
2022/05/22 07:47:45;;;;;;;6.90;2.13;;;;;;;17.58;50.62;100681.28;4970209;28;20065;-76
2022/05/22 07:50:17;;;;;;;6.90;1.60;;;;;;;17.59;50.98;100690.16;4977597;28;20030;-77
2022/05/22 07:52:54;;;;;;;5.53;1.63;;;;;;;17.75;50.39;100683.38;4977477;28;20038;-77
2022/05/22 07:55:28;;;;;;;7.93;1.92;;;;;;;17.89;49.98;100683.84;4976901;28;20038;-77
2022/05/22 07:58:22;;;;;;;5.53;1.55;;;;;;;18.23;48.61;100677.31;4989568;28;20044;-77
2022/05/22 08:01:08;;;;;;;10.98;1.50;;;;;;;18.08;49.69;100688.56;4977646;28;20046;-77
2022/05/22 08:03:52;;;;;;;6.45;1.38;;;;;;;17.84;49.19;100682.22;4995356;28;20041;-76
2022/05/22 08:06:36;;;;;;;5.93;1.80;;;;;;;17.68;49.26;100679.16;4995021;28;20046;-76
2022/05/22 08:09:13;;;;;;;6.10;2.05;;;;;;;17.82;49.52;100682.28;4973099;28;20036;-76
2022/05/22 08:11:43;;;;;;;6.97;2.15;;;;;;;18.09;49.29;100684.94;4976884;28;20038;-76
2022/05/22 08:14:12;;;;;;;7.30;2.17;;;;;;;18.25;49.47;100674.59;4977524;28;20030;-76
2022/05/22 08:16:40;;;;;;;5.05;1.40;;;;;;;18.43;49.27;100673.94;4977394;28;20034;-76
2022/05/22 08:19:16;;;;;;;6.75;1.45;;;;;;;18.53;48.04;100683.34;4977428;28;20455;-76
2022/05/22 08:22:06;;;;;;;5.25;1.42;;;;;;;18.22;46.74;100667.56;4971887;28;20065;-76
2022/05/22 08:25:02;;;;;;;8.65;2.58;;;;;;;17.61;47.64;100682.97;4950946;28;20471;-76
2022/05/22 08:27:28;;;;;;;4.75;1.80;;;;;;;17.51;48.52;100685.94;4973678;28;20026;-76
2022/05/22 08:29:54;;;;;;;7.25;2.10;;;;;;;17.75;49.54;100681.59;4977148;28;20382;-76
2022/05/22 08:32:22;;;;;;;9.38;1.95;;;;;;;18.34;46.87;100676.94;4976660;28;20413;-76
2022/05/22 08:34:47;;;;;;;6.68;1.75;;;;;;;18.61;47.51;100672.38;4993099;28;20046;-76
2022/05/22 08:37:13;;;;;;;8.23;1.85;;;;;;;18.76;46.23;100671.84;4976563;28;20035;-76
2022/05/22 08:39:38;;;;;;;8.65;1.92;;;;;;;18.56;46.00;100677.03;4994557;28;20050;-76
2022/05/22 08:42:16;;;;;;;6.32;1.92;;;;;;;18.63;46.84;100681.22;4994025;28;20034;-76
2022/05/22 08:44:42;;;;;;;7.78;1.98;;;;;;;18.15;47.09;100679.38;4994302;28;20050;-76
2022/05/22 08:47:22;;;;;;;6.95;1.80;;;;;;;17.88;47.71;100687.41;4976748;28;20481;-77
2022/05/22 08:49:47;;;;;;;7.03;1.80;;;;;;;17.37;49.99;100685.53;4994185;28;20034;-76
2022/05/22 08:52:37;;;;;;;8.45;2.10;;;;;;;17.88;48.91;100684.75;4976389;28;20042;-76
2022/05/22 08:55:11;;;;;;;5.75;1.92;;;;;;;18.35;47.39;100676.88;4975416;28;20034;-76
2022/05/22 09:00:51;;;;;;;5.55;1.50;;;;;;;18.32;44.95;100670.78;4993413;28;20034;-75
2022/05/22 09:03:24;;;;;;;10.25;1.52;;;;;;;18.04;44.70;100681.56;4993817;28;20040;-76
2022/05/22 09:05:53;;;;;;;4.55;1.23;;;;;;;18.03;45.08;100675.34;4993575;28;20041;-76
2022/05/22 09:08:26;;;;;;;5.13;1.52;;;;;;;18.29;43.73;100666.41;4993665;28;20085;-76
2022/05/22 09:11:08;;;;;;;5.85;1.50;;;;;;;18.31;44.18;100667.25;4993605;28;20600;-76
2022/05/22 09:13:41;;;;;;;8.02;1.67;;;;;;;18.61;43.64;100659.03;4990133;28;20046;-76
2022/05/22 09:16:11;;;;;;;6.88;1.83;;;;;;;19.14;44.42;100671.28;4993471;28;20069;-76
2022/05/22 09:18:50;;;;;;;7.28;1.67;;;;;;;19.33;42.87;100663.41;4993687;28;20041;-76
2022/05/22 09:21:33;;;;;;;6.88;1.63;;;;;;;19.49;43.52;100662.72;4991210;28;20038;-76
2022/05/22 09:24:23;;;;;;;5.43;1.55;;;;;;;19.38;43.01;100669.44;4990754;28;20042;-76
2022/05/22 09:27:21;;;;;;;6.43;1.65;;;;;;;18.92;44.47;100672.13;4985972;28;20093;-76
2022/05/22 09:29:50;;;;;;;5.85;1.58;;;;;;;18.78;45.87;100667.28;4991871;28;20041;-75
2022/05/22 09:32:53;;;;;;;4.95;1.63;;;;;;;18.99;45.63;100679.00;4975706;28;20050;-76
2022/05/22 09:35:39;;;;;;;8.77;2.20;;;;;;;19.14;44.46;100665.94;4990751;28;20038;-76
2022/05/22 09:38:42;;;;;;;6.07;1.80;;;;;;;19.31;41.34;100662.56;4990224;28;20041;-76
2022/05/22 09:41:21;;;;;;;6.07;1.50;;;;;;;19.68;41.29;100664.66;4991611;28;20065;-76
2022/05/22 09:44:05;;;;;;;6.47;1.83;;;;;;;19.87;41.39;100667.44;4990727;28;20034;-77
2022/05/22 09:46:58;;;;;;;5.00;1.08;;;;;;;20.18;40.59;100661.63;4989807;28;20547;-76
2022/05/22 09:49:39;;;;;;;6.88;1.40;;;;;;;20.14;41.38;100644.78;4972648;28;20042;-76
2022/05/22 09:52:17;;;;;;;6.95;1.58;;;;;;;20.30;41.56;100650.38;4992737;28;20493;-76
2022/05/22 09:55:07;;;;;;;5.82;1.42;;;;;;;20.50;41.74;100640.56;4992433;28;20070;-76
2022/05/22 09:57:59;;;;;;;7.13;1.73;;;;;;;20.23;42.48;100653.41;4991304;28;20190;-76
2022/05/22 10:00:37;;;;;;;5.25;1.55;;;;;;;20.01;42.38;100659.66;4991681;28;20061;-76
2022/05/22 10:03:02;;;;;;;6.45;1.63;;;;;;;19.96;42.32;100642.91;4989915;28;20069;-76
2022/05/22 10:05:30;;;;;;;5.35;1.50;;;;;;;20.13;40.88;100639.53;4992663;28;20074;-76
2022/05/22 10:08:09;;;;;;;6.95;1.98;;;;;;;20.00;40.00;100644.53;4992681;28;20038;-76
2022/05/22 10:10:48;;;;;;;4.07;1.20;;;;;;;20.08;37.73;100644.22;4990068;28;20478;-76
2022/05/22 10:13:34;;;;;;;2.53;0.80;;;;;;;20.31;37.52;100637.84;4975002;28;20088;-76
2022/05/22 10:16:00;;;;;;;4.95;1.33;;;;;;;20.84;37.45;100641.72;4992413;28;20049;-76
2022/05/22 10:18:28;;;;;;;4.75;1.15;;;;;;;21.11;36.83;100642.19;4992354;28;20063;-76
2022/05/22 10:21:04;;;;;;;8.90;1.70;;;;;;;20.99;37.86;100647.22;4973006;28;20084;-76
2022/05/22 10:24:00;;;;;;;5.47;1.42;;;;;;;20.46;38.81;100644.31;4992467;28;20046;-76
2022/05/22 10:26:36;;;;;;;5.00;1.73;;;;;;;20.20;39.60;100648.16;4988468;28;20050;-76
2022/05/22 10:29:11;;;;;;;4.20;1.20;;;;;;;20.15;39.71;100634.97;4971617;28;20401;-76
2022/05/22 10:31:56;;;;;;;4.00;1.25;;;;;;;20.83;40.64;100632.78;4988319;28;20041;-76
2022/05/22 10:34:41;;;;;;;5.97;1.63;;;;;;;21.13;39.28;100629.59;4991652;28;20513;-76
2022/05/22 10:37:22;;;;;;;4.20;1.00;;;;;;;20.89;38.50;100643.22;4974708;28;20568;-76
2022/05/22 10:39:47;;;;;;;3.97;1.08;;;;;;;20.90;37.90;100639.59;4989789;28;20042;-76
2022/05/22 10:42:46;;;;;;;5.22;1.42;;;;;;;20.95;39.11;100637.56;4991954;28;20112;-76
2022/05/22 10:45:37;;;;;;;9.27;1.88;;;;;;;20.42;40.30;100654.31;4991727;28;20128;-75
2022/05/22 10:48:09;;;;;;;4.47;1.87;;;;;;;20.70;40.70;100639.69;4991722;28;20486;-76
2022/05/22 10:50:35;;;;;;;;;;;;;;;21.16;37.63;100624.06;4958906;28;20045;-76
2022/05/22 10:53:00;;;;;;;4.63;1.23;;;;;;;21.41;37.24;100621.09;4989851;28;19918;-76
2022/05/22 10:55:38;;;;;;;5.65;1.10;;;;;;;21.20;37.62;100631.03;4988759;28;20045;-76
2022/05/22 10:58:22;;;;;;;6.50;1.63;;;;;;;20.61;40.17;100626.69;4989223;28;20062;-76
2022/05/22 11:00:57;;;;;;;5.43;1.42;;;;;;;20.30;40.46;100628.03;4988449;28;20039;-76
2022/05/22 11:03:31;;;;;;;4.32;1.25;;;;;;;20.36;40.13;100627.78;4974517;28;20038;-76
2022/05/22 11:05:58;;;;;;;6.13;1.35;;;;;;;20.49;38.49;100628.09;4987179;28;20042;-76
2022/05/22 11:08:30;;;;;;;3.17;0.80;;;;;;;20.90;37.07;100606.53;4974563;28;20038;-76
2022/05/22 11:11:20;;;;;;;5.78;1.67;;;;;;;21.29;37.32;100614.47;4991669;28;20065;-76
2022/05/22 11:13:46;;;;;;;7.88;1.58;;;;;;;21.30;37.15;100604.59;4977825;28;20421;-76
2022/05/22 11:16:18;;;;;;;7.50;2.08;;;;;;;21.27;38.52;100615.47;4991343;28;20104;-76
2022/05/22 11:18:44;;;;;;;3.65;1.23;;;;;;;21.13;39.32;100605.44;4988660;28;20038;-76
2022/05/22 11:21:24;;;;;;;7.18;1.33;;;;;;;20.95;39.70;100608.06;4974040;28;20034;-76
2022/05/22 11:24:15;;;;;;;4.63;1.45;;;;;;;21.15;36.94;100615.16;4988558;28;20038;-76
2022/05/22 11:26:58;;;;;;;3.65;1.20;;;;;;;21.22;35.39;100610.34;4984390;28;20133;-76
2022/05/22 11:29:37;;;;;;;3.45;1.10;;;;;;;21.14;34.66;100612.53;4991646;28;20046;-76
2022/05/22 11:32:28;;;;;;;3.55;1.10;;;;;;;21.68;34.73;100589.28;4991567;28;20049;-76
2022/05/22 11:35:04;;;;;;;4.57;1.58;;;;;;;22.59;34.05;100590.72;4972447;28;20085;-76
2022/05/22 11:37:53;;;;;;;4.60;1.48;;;;;;;22.58;34.71;100585.44;4988034;28;20035;-76
2022/05/22 11:40:32;;;;;;;5.53;1.60;;;;;;;22.34;34.95;100576.88;4988077;28;20465;-77
2022/05/22 11:43:24;;;;;;;11.00;1.90;;;;;;;21.90;36.91;100572.91;4991579;28;20083;-76
2022/05/22 11:45:50;;;;;;;5.38;1.67;;;;;;;22.17;36.62;100580.47;4990899;28;20691;-76
2022/05/22 11:48:32;;;;;;;3.75;1.35;;;;;;;22.61;35.20;100574.50;4991477;28;20042;-75
2022/05/22 11:51:28;;;;;;;5.63;1.88;;;;;;;22.31;34.01;100557.28;4991411;28;20042;-76
2022/05/22 11:54:06;;;;;;;4.60;1.67;;;;;;;22.70;33.62;100558.72;4973827;28;20049;-76
2022/05/22 11:57:00;;;;;;;5.03;1.52;;;;;;;23.00;33.34;100574.09;4987578;28;20125;-76
2022/05/22 11:59:54;;;;;;;2.25;1.10;;;;;;;23.88;31.65;100566.28;4990070;28;20045;-77
2022/05/22 12:02:28;;;;;;;3.80;1.20;;;;;;;24.16;30.48;100555.53;4986374;28;20416;-76
2022/05/22 12:05:33;;;;;;;5.75;1.20;;;;;;;24.37;31.22;100561.41;4991315;28;20027;-76
2022/05/22 12:08:04;;;;;;;3.95;1.20;;;;;;;24.24;31.21;100557.75;4974472;28;20555;-76
2022/05/22 12:10:38;;;;;;;4.38;1.38;;;;;;;24.89;30.35;100543.72;4972790;28;20046;-76